• Join FlightAware (Why Join?)
  • Login
  • US Flag 
11:58PM EDT


 

Airport Tracker/Info


-or-


 

Live Flight TrackerFlight Track Log ✈ UAE787 ✈ 03-May-2013 ✈ DGAA / ACC - DIAP / ABJ

Flight Track Log - Related Links

Times and Time Zones

All times are in EDT time to prevent confusion due to time zone crossing. See the UAE787 flight status page for this flight to view local times or setup timezone preferences in your user account.

Time Position Orientation Groundspeed Altitude Reporting Facility
EDT Latitude Longitude Course Direction KTS MPH feet Rate Location/Type
09:21AM 5.5904 -0.3797 266° West  Level FlightAware Approximate
09:22AM 5.5855 -0.4507 266° West  Level FlightAware Approximate
09:23AM 5.5805 -0.5216 266° West  Level FlightAware Approximate
09:24AM 5.5755 -0.5926 266° West  Level FlightAware Approximate
09:25AM 5.5706 -0.6636 266° West  Level FlightAware Approximate
09:26AM 5.5656 -0.7345 266° West  Level FlightAware Approximate
09:27AM 5.5606 -0.8055 266° West  Level FlightAware Approximate
09:28AM 5.5556 -0.8765 266° West  Level FlightAware Approximate
09:29AM 5.5506 -0.9474 266° West  Level FlightAware Approximate
09:30AM 5.5456 -1.0184 266° West  Level FlightAware Approximate
09:31AM 5.5406 -1.0893 266° West  Level FlightAware Approximate
09:32AM 5.5355 -1.1603 266° West  Level FlightAware Approximate
09:33AM 5.5305 -1.2313 266° West  Level FlightAware Approximate
09:34AM 5.5254 -1.3022 266° West  Level FlightAware Approximate
09:35AM 5.5204 -1.3732 266° West  Level FlightAware Approximate
09:36AM 5.5153 -1.4441 266° West  Level FlightAware Approximate
09:37AM 5.5103 -1.5151 266° West  Level FlightAware Approximate
09:38AM 5.5052 -1.5860 266° West  Level FlightAware Approximate
09:39AM 5.5001 -1.6570 266° West  Level FlightAware Approximate
09:40AM 5.4950 -1.7279 266° West  Level FlightAware Approximate
09:41AM 5.4899 -1.7989 266° West  Level FlightAware Approximate
09:42AM 5.4847 -1.8698 266° West  Level FlightAware Approximate
09:43AM 5.4796 -1.9408 266° West  Level FlightAware Approximate
09:44AM 5.4745 -2.0117 266° West  Level FlightAware Approximate
09:45AM 5.4694 -2.0826 266° West  Level FlightAware Approximate
09:46AM 5.4642 -2.1536 266° West  Level FlightAware Approximate
09:47AM 5.4591 -2.2245 266° West  Level FlightAware Approximate
09:48AM 5.4539 -2.2955 266° West  Level FlightAware Approximate
09:49AM 5.4487 -2.3664 266° West  Level FlightAware Approximate
09:50AM 5.4435 -2.4374 266° West  Level FlightAware Approximate
09:51AM 5.4384 -2.5083 266° West  Level FlightAware Approximate
09:52AM 5.4331 -2.5792 266° West  Level FlightAware Approximate
09:53AM 5.4279 -2.6501 266° West  Level FlightAware Approximate
09:54AM 5.4227 -2.7211 266° West  Level FlightAware Approximate
09:55AM 5.4175 -2.7920 266° West  Level FlightAware Approximate
09:56AM 5.4123 -2.8629 266° West  Level FlightAware Approximate
09:57AM 5.4083 -2.9167 265° West  Level FlightAware Approximate
09:58AM 5.3981 -2.9871 265° West  Level Estimated
09:59AM 5.4083 -2.9167 265° West  Level FlightAware Approximate
10:00AM 5.3981 -2.9871 265° West  Level Estimated
10:01AM 5.4083 -2.9167 265° West  Level FlightAware Approximate
10:02AM 5.3981 -2.9871 265° West  Level Estimated
10:03AM 5.4083 -2.9167 265° West  Level FlightAware Approximate
10:04AM 5.3995 -2.9777 265° West  Level Estimated